Map

Track Data

SID SEASON NUMBER BASIN SUBBASIN NAME ISO_TIME NATURE LAT LON WMO_WIND WMO_PRES WMO_AGENCY TRACK_TYPE DIST2LAND LANDFALL IFLAG USA_AGENCY USA_ATCF_ID USA_LAT USA_LON USA_RECORD USA_STATUS USA_WIND USA_PRES USA_SSHS USA_R34_NE USA_R34_SE USA_R34_SW USA_R34_NW USA_R50_NE USA_R50_SE USA_R50_SW USA_R50_NW USA_R64_NE USA_R64_SE USA_R64_SW USA_R64_NW USA_POCI USA_ROCI USA_RMW USA_EYE TOKYO_LAT TOKYO_LON TOKYO_GRADE TOKYO_WIND TOKYO_PRES TOKYO_R50_DIR TOKYO_R50_LONG TOKYO_R50_SHORT TOKYO_R30_DIR TOKYO_R30_LONG TOKYO_R30_SHORT TOKYO_LAND CMA_LAT CMA_LON CMA_CAT CMA_WIND CMA_PRES HKO_LAT HKO_LON HKO_CAT HKO_WIND HKO_PRES NEWDELHI_LAT NEWDELHI_LON NEWDELHI_GRADE NEWDELHI_WIND NEWDELHI_PRES NEWDELHI_CI NEWDELHI_DP NEWDELHI_POCI REUNION_LAT REUNION_LON REUNION_TYPE REUNION_WIND REUNION_PRES REUNION_TNUM REUNION_CI REUNION_RMW REUNION_R34_NE REUNION_R34_SE REUNION_R34_SW REUNION_R34_NW REUNION_R50_NE REUNION_R50_SE REUNION_R50_SW REUNION_R50_NW REUNION_R64_NE REUNION_R64_SE REUNION_R64_SW REUNION_R64_NW BOM_LAT BOM_LON BOM_TYPE BOM_WIND BOM_PRES BOM_TNUM BOM_CI BOM_RMW BOM_R34_NE BOM_R34_SE BOM_R34_SW BOM_R34_NW BOM_R50_NE BOM_R50_SE BOM_R50_SW BOM_R50_NW BOM_R64_NE BOM_R64_SE BOM_R64_SW BOM_R64_NW BOM_ROCI BOM_POCI BOM_EYE BOM_POS_METHOD BOM_PRES_METHOD NADI_LAT NADI_LON NADI_CAT NADI_WIND NADI_PRES WELLINGTON_LAT WELLINGTON_LON WELLINGTON_WIND WELLINGTON_PRES DS824_LAT DS824_LON DS824_STAGE DS824_WIND DS824_PRES TD9636_LAT TD9636_LON TD9636_STAGE TD9636_WIND TD9636_PRES TD9635_LAT TD9635_LON TD9635_WIND TD9635_PRES TD9635_ROCI NEUMANN_LAT NEUMANN_LON NEUMANN_CLASS NEUMANN_WIND NEUMANN_PRES MLC_LAT MLC_LON MLC_CLASS MLC_WIND MLC_PRES USA_GUST BOM_GUST BOM_GUST_PER REUNION_GUST REUNION_GUST_PER USA_SEAHGT USA_SEARAD_NE USA_SEARAD_SE USA_SEARAD_SW USA_SEARAD_NW STORM_SPEED STORM_DIR
1905070S14413 1905 12 SI MM NOT_NAMED 1905-03-10 18:00:00 NR -14.2000 53.4000 main 331 314 __________O___ -1 -14.2000 53.4000 7 5 207
1905070S14413 1905 12 SI MM NOT_NAMED 1905-03-10 21:00:00 NR -14.4092 53.2901 main 314 297 __________P___ -1 -14.4092 53.2901 7 5 207
1905070S14413 1905 12 SI MM NOT_NAMED 1905-03-11 00:00:00 NR -14.6448 53.1642 main 297 270 __________P___ -1 -14.6448 53.1642 7 6 208
1905070S14413 1905 12 SI MM NOT_NAMED 1905-03-11 03:00:00 NR -14.9329 53.0063 main 270 246 __________P___ -1 -14.9329 53.0063 7 7 208
1905070S14413 1905 12 SI MM NOT_NAMED 1905-03-11 06:00:00 NR -15.3000 52.8000 main 246 226 __________O___ -1 -15.3000 52.8000 7 10 209
1905070S14413 1905 12 SI MM NOT_NAMED 1905-03-11 09:00:00 NR -15.7631 52.5373 main 218 208 __________P___ -1 -15.7631 52.5373 7 11 208
1905070S14413 1905 12 SI MM NOT_NAMED 1905-03-11 12:00:00 NR -16.3030 52.2436 main 207 207 __________P___ -1 -16.3030 52.2436 7 13 206
1905070S14413 1905 12 SI MM NOT_NAMED 1905-03-11 15:00:00 NR -16.8913 51.9529 main 216 207 __________P___ -1 -16.8913 51.9529 7 13 203
1905070S14413 1905 12 SI MM NOT_NAMED 1905-03-11 18:00:00 NR -17.5000 51.7000 main 216 214 __________O___ -1 -17.5000 51.7000 7 13 199
1905070S14413 1905 12 SI MM NOT_NAMED 1905-03-11 21:00:00 NR -18.0773 51.5271 main 216 212 __________P___ -1 -18.0773 51.5271 7 12 194
1905070S14413 1905 12 SI MM NOT_NAMED 1905-03-12 00:00:00 NR -18.6698 51.3965 main 218 215 __________P___ -1 -18.6698 51.3965 7 12 190
1905070S14413 1905 12 SI MM NOT_NAMED 1905-03-12 03:00:00 NR -19.2774 51.2928 main 230 230 __________P___ -1 -19.2774 51.2928 7 13 189
1905070S14413 1905 12 SI MM NOT_NAMED 1905-03-12 06:00:00 NR -19.9000 51.2000 main 242 240 __________O___ -1 -19.9000 51.2000 7 13 191
1905070S14413 1905 12 SI MM NOT_NAMED 1905-03-12 09:00:00 NR -20.5113 51.0415 main 236 236 __________P___ -1 -20.5113 51.0415 7 13 193
1905070S14413 1905 12 SI MM NOT_NAMED 1905-03-12 12:00:00 NR -21.1400 50.8976 main 250 250 __________P___ -1 -21.1400 50.8976 7 13 190
1905070S14413 1905 12 SI MM NOT_NAMED 1905-03-12 15:00:00 NR -21.7987 50.8047 main 262 262 __________P___ -1 -21.7987 50.8047 7 14 184
1905070S14413 1905 12 SI MM NOT_NAMED 1905-03-12 18:00:00 NR -22.5000 50.8000 main 278 278 __________O___ -1 -22.5000 50.8000 7 15 176
1905070S14413 1905 12 SI MM NOT_NAMED 1905-03-12 21:00:00 NR -23.2521 50.9102 main 319 319 __________P___ -1 -23.2521 50.9102 7 16 169
1905070S14413 1905 12 SI MM NOT_NAMED 1905-03-13 00:00:00 NR -24.0456 51.1170 main 352 352 __________P___ -1 -24.0456 51.1170 7 17 165
1905070S14413 1905 12 SI MM NOT_NAMED 1905-03-13 03:00:00 NR -24.8663 51.3906 main 407 407 __________P___ -1 -24.8663 51.3906 7 17 162
1905070S14413 1905 12 SI MM NOT_NAMED 1905-03-13 06:00:00 NR -25.7000 51.7000 main 462 __________O___ -1 -25.7000 51.7000 7 18 161

About IBTrACS Database

This database is a web-friendly format of International Best Track Archive for Climate Stewardship (IBTrACS), a global best track data archive curated by NOAA dating back to 1842.

Updated: 2021-11-26